sensor_id;sensor_type;location;lat;lon;timestamp;P1;durP1;ratioP1;P2;durP2;ratioP2
36185;SDS011;22228;53.222;7.446;2023-12-20T00:00:30;12.73;;;2.43;;
36185;SDS011;22228;53.222;7.446;2023-12-20T00:03:52;10.57;;;2.03;;
36185;SDS011;22228;53.222;7.446;2023-12-20T00:07:12;11.07;;;1.80;;
36185;SDS011;22228;53.222;7.446;2023-12-20T00:10:34;12.80;;;2.80;;
36185;SDS011;22228;53.222;7.446;2023-12-20T00:13:55;14.00;;;2.30;;
36185;SDS011;22228;53.222;7.446;2023-12-20T00:17:15;11.83;;;1.90;;
36185;SDS011;22228;53.222;7.446;2023-12-20T00:20:36;12.70;;;2.03;;
36185;SDS011;22228;53.222;7.446;2023-12-20T00:23:56;11.03;;;2.03;;
36185;SDS011;22228;53.222;7.446;2023-12-20T00:27:18;9.87;;;2.00;;
36185;SDS011;22228;53.222;7.446;2023-12-20T00:30:39;10.67;;;2.10;;
36185;SDS011;22228;53.222;7.446;2023-12-20T00:33:59;6.73;;;1.70;;
36185;SDS011;22228;53.222;7.446;2023-12-20T00:37:20;11.40;;;2.40;;
36185;SDS011;22228;53.222;7.446;2023-12-20T00:40:40;9.30;;;2.50;;
36185;SDS011;22228;53.222;7.446;2023-12-20T00:44:02;8.33;;;1.50;;
36185;SDS011;22228;53.222;7.446;2023-12-20T00:47:23;9.03;;;1.90;;
36185;SDS011;22228;53.222;7.446;2023-12-20T00:50:43;9.27;;;2.30;;
36185;SDS011;22228;53.222;7.446;2023-12-20T00:54:04;7.27;;;2.07;;
36185;SDS011;22228;53.222;7.446;2023-12-20T00:57:24;9.53;;;1.93;;
36185;SDS011;22228;53.222;7.446;2023-12-20T01:00:46;12.87;;;2.33;;
36185;SDS011;22228;53.222;7.446;2023-12-20T01:04:06;12.17;;;2.17;;
36185;SDS011;22228;53.222;7.446;2023-12-20T01:07:27;8.17;;;2.03;;
36185;SDS011;22228;53.222;7.446;2023-12-20T01:10:47;7.30;;;1.93;;
36185;SDS011;22228;53.222;7.446;2023-12-20T01:14:08;15.17;;;2.67;;
36185;SDS011;22228;53.222;7.446;2023-12-20T04:00:59;16.93;;;3.30;;
36185;SDS011;22228;53.222;7.446;2023-12-20T04:04:21;18.60;;;2.97;;
36185;SDS011;22228;53.222;7.446;2023-12-20T04:07:42;21.93;;;3.63;;
36185;SDS011;22228;53.222;7.446;2023-12-20T04:11:02;11.57;;;2.60;;
36185;SDS011;22228;53.222;7.446;2023-12-20T04:14:23;19.93;;;3.40;;
36185;SDS011;22228;53.222;7.446;2023-12-20T04:17:45;18.23;;;3.20;;
36185;SDS011;22228;53.222;7.446;2023-12-20T04:21:06;18.73;;;3.87;;
36185;SDS011;22228;53.222;7.446;2023-12-20T04:24:26;13.43;;;3.00;;
36185;SDS011;22228;53.222;7.446;2023-12-20T04:27:47;21.43;;;3.00;;
36185;SDS011;22228;53.222;7.446;2023-12-20T04:31:07;20.77;;;3.50;;
36185;SDS011;22228;53.222;7.446;2023-12-20T04:34:29;14.07;;;2.90;;
36185;SDS011;22228;53.222;7.446;2023-12-20T04:37:50;21.30;;;3.63;;
36185;SDS011;22228;53.222;7.446;2023-12-20T04:41:10;10.97;;;2.80;;
36185;SDS011;22228;53.222;7.446;2023-12-20T04:44:35;11.57;;;2.67;;
36185;SDS011;22228;53.222;7.446;2023-12-20T04:47:56;8.53;;;2.70;;
36185;SDS011;22228;53.222;7.446;2023-12-20T04:51:21;15.37;;;3.40;;
36185;SDS011;22228;53.222;7.446;2023-12-20T04:54:41;18.53;;;3.80;;
36185;SDS011;22228;53.222;7.446;2023-12-20T04:58:02;16.37;;;3.43;;
36185;SDS011;22228;53.222;7.446;2023-12-20T05:01:23;21.40;;;4.60;;
36185;SDS011;22228;53.222;7.446;2023-12-20T05:04:43;18.23;;;4.63;;
36185;SDS011;22228;53.222;7.446;2023-12-20T05:08:06;22.70;;;5.40;;
36185;SDS011;22228;53.222;7.446;2023-12-20T05:11:27;15.50;;;4.20;;
36185;SDS011;22228;53.222;7.446;2023-12-20T05:14:47;31.73;;;5.53;;
36185;SDS011;22228;53.222;7.446;2023-12-20T05:18:14;24.67;;;5.10;;
36185;SDS011;22228;53.222;7.446;2023-12-20T05:21:59;20.13;;;4.53;;
36185;SDS011;22228;53.222;7.446;2023-12-20T05:25:21;19.73;;;4.93;;
36185;SDS011;22228;53.222;7.446;2023-12-20T05:28:41;18.30;;;4.63;;
36185;SDS011;22228;53.222;7.446;2023-12-20T05:32:02;26.40;;;5.60;;
36185;SDS011;22228;53.222;7.446;2023-12-20T05:35:23;21.70;;;4.20;;
36185;SDS011;22228;53.222;7.446;2023-12-20T05:38:44;19.53;;;5.20;;
36185;SDS011;22228;53.222;7.446;2023-12-20T05:42:06;24.03;;;4.60;;
36185;SDS011;22228;53.222;7.446;2023-12-20T05:45:27;26.90;;;5.03;;
36185;SDS011;22228;53.222;7.446;2023-12-20T05:48:48;25.40;;;4.40;;
36185;SDS011;22228;53.222;7.446;2023-12-20T05:52:10;30.87;;;5.57;;
36185;SDS011;22228;53.222;7.446;2023-12-20T05:55:30;17.20;;;3.77;;
36185;SDS011;22228;53.222;7.446;2023-12-20T05:58:53;24.97;;;4.93;;
36185;SDS011;22228;53.222;7.446;2023-12-20T06:02:14;21.80;;;4.73;;
36185;SDS011;22228;53.222;7.446;2023-12-20T06:05:34;22.83;;;4.57;;
36185;SDS011;22228;53.222;7.446;2023-12-20T06:08:56;21.83;;;4.40;;
36185;SDS011;22228;53.222;7.446;2023-12-20T06:12:17;17.40;;;4.93;;
36185;SDS011;22228;53.222;7.446;2023-12-20T06:15:38;21.37;;;4.40;;
36185;SDS011;22228;53.222;7.446;2023-12-20T06:19:00;19.87;;;4.40;;
36185;SDS011;22228;53.222;7.446;2023-12-20T06:22:21;22.43;;;5.10;;
36185;SDS011;22228;53.222;7.446;2023-12-20T06:25:42;19.17;;;3.97;;
36185;SDS011;22228;53.222;7.446;2023-12-20T06:29:02;20.43;;;4.47;;
36185;SDS011;22228;53.222;7.446;2023-12-20T06:32:27;22.57;;;4.63;;
36185;SDS011;22228;53.222;7.446;2023-12-20T06:35:48;27.10;;;5.37;;
36185;SDS011;22228;53.222;7.446;2023-12-20T06:39:09;29.43;;;5.37;;
36185;SDS011;22228;53.222;7.446;2023-12-20T06:42:31;30.47;;;5.27;;
36185;SDS011;22228;53.222;7.446;2023-12-20T06:45:56;22.20;;;4.90;;
36185;SDS011;22228;53.222;7.446;2023-12-20T06:49:18;18.07;;;3.83;;
36185;SDS011;22228;53.222;7.446;2023-12-20T06:52:38;25.67;;;4.50;;
36185;SDS011;22228;53.222;7.446;2023-12-20T06:56:05;18.80;;;3.87;;
36185;SDS011;22228;53.222;7.446;2023-12-20T06:59:27;21.10;;;4.13;;
36185;SDS011;22228;53.222;7.446;2023-12-20T07:02:48;21.60;;;5.30;;
36185;SDS011;22228;53.222;7.446;2023-12-20T07:06:10;26.03;;;5.00;;
36185;SDS011;22228;53.222;7.446;2023-12-20T07:09:31;19.57;;;4.37;;
36185;SDS011;22228;53.222;7.446;2023-12-20T07:12:51;25.40;;;4.63;;
36185;SDS011;22228;53.222;7.446;2023-12-20T07:16:13;22.17;;;5.40;;
36185;SDS011;22228;53.222;7.446;2023-12-20T07:19:34;20.30;;;5.33;;
36185;SDS011;22228;53.222;7.446;2023-12-20T07:22:56;20.60;;;5.13;;
36185;SDS011;22228;53.222;7.446;2023-12-20T07:26:27;23.90;;;5.47;;
36185;SDS011;22228;53.222;7.446;2023-12-20T07:29:48;26.83;;;5.93;;
36185;SDS011;22228;53.222;7.446;2023-12-20T07:33:08;25.83;;;4.73;;
36185;SDS011;22228;53.222;7.446;2023-12-20T07:36:31;18.87;;;4.90;;
36185;SDS011;22228;53.222;7.446;2023-12-20T07:39:53;30.13;;;4.77;;
36185;SDS011;22228;53.222;7.446;2023-12-20T07:43:14;21.77;;;4.83;;
36185;SDS011;22228;53.222;7.446;2023-12-20T07:46:35;21.20;;;4.57;;
36185;SDS011;22228;53.222;7.446;2023-12-20T07:49:55;26.00;;;4.33;;
36185;SDS011;22228;53.222;7.446;2023-12-20T07:53:15;30.30;;;4.23;;
36185;SDS011;22228;53.222;7.446;2023-12-20T07:56:37;18.50;;;5.13;;
36185;SDS011;22228;53.222;7.446;2023-12-20T07:59:59;21.07;;;5.20;;
36185;SDS011;22228;53.222;7.446;2023-12-20T08:03:19;27.27;;;5.90;;
36185;SDS011;22228;53.222;7.446;2023-12-20T08:06:40;23.53;;;5.23;;
36185;SDS011;22228;53.222;7.446;2023-12-20T08:10:00;24.73;;;4.80;;
36185;SDS011;22228;53.222;7.446;2023-12-20T08:13:22;22.80;;;4.90;;
36185;SDS011;22228;53.222;7.446;2023-12-20T08:16:49;22.00;;;4.27;;
36185;SDS011;22228;53.222;7.446;2023-12-20T08:20:09;28.53;;;5.80;;
36185;SDS011;22228;53.222;7.446;2023-12-20T08:23:30;20.37;;;4.47;;
36185;SDS011;22228;53.222;7.446;2023-12-20T08:26:51;26.90;;;4.57;;
36185;SDS011;22228;53.222;7.446;2023-12-20T08:30:13;16.70;;;3.80;;
36185;SDS011;22228;53.222;7.446;2023-12-20T08:33:35;20.87;;;4.60;;
36185;SDS011;22228;53.222;7.446;2023-12-20T08:36:56;17.83;;;3.93;;
36185;SDS011;22228;53.222;7.446;2023-12-20T08:40:16;15.23;;;3.53;;
36185;SDS011;22228;53.222;7.446;2023-12-20T08:43:37;18.43;;;3.90;;
36185;SDS011;22228;53.222;7.446;2023-12-20T08:47:00;25.40;;;4.13;;
36185;SDS011;22228;53.222;7.446;2023-12-20T08:50:21;27.50;;;5.37;;
36185;SDS011;22228;53.222;7.446;2023-12-20T08:53:42;19.43;;;3.07;;
36185;SDS011;22228;53.222;7.446;2023-12-20T08:57:04;14.67;;;3.20;;
36185;SDS011;22228;53.222;7.446;2023-12-20T09:00:25;8.07;;;1.30;;
36185;SDS011;22228;53.222;7.446;2023-12-20T09:03:47;3.80;;;0.90;;
36185;SDS011;22228;53.222;7.446;2023-12-20T09:07:20;5.70;;;1.33;;
36185;SDS011;22228;53.222;7.446;2023-12-20T09:10:40;10.77;;;2.20;;
36185;SDS011;22228;53.222;7.446;2023-12-20T09:14:01;10.57;;;2.33;;
36185;SDS011;22228;53.222;7.446;2023-12-20T09:17:22;11.37;;;2.07;;
36185;SDS011;22228;53.222;7.446;2023-12-20T09:20:44;11.23;;;1.50;;
36185;SDS011;22228;53.222;7.446;2023-12-20T09:24:05;5.43;;;1.13;;
36185;SDS011;22228;53.222;7.446;2023-12-20T09:27:25;6.37;;;1.23;;
36185;SDS011;22228;53.222;7.446;2023-12-20T09:30:46;3.90;;;1.10;;
36185;SDS011;22228;53.222;7.446;2023-12-20T09:34:07;7.83;;;1.70;;
36185;SDS011;22228;53.222;7.446;2023-12-20T09:37:28;13.93;;;2.00;;
36185;SDS011;22228;53.222;7.446;2023-12-20T09:40:49;5.07;;;2.10;;
36185;SDS011;22228;53.222;7.446;2023-12-20T09:44:10;11.33;;;1.70;;
36185;SDS011;22228;53.222;7.446;2023-12-20T09:47:36;5.93;;;1.10;;
36185;SDS011;22228;53.222;7.446;2023-12-20T09:50:56;8.30;;;1.20;;
36185;SDS011;22228;53.222;7.446;2023-12-20T09:54:19;6.13;;;0.80;;
36185;SDS011;22228;53.222;7.446;2023-12-20T09:57:40;6.47;;;0.87;;
36185;SDS011;22228;53.222;7.446;2023-12-20T10:01:01;6.17;;;0.90;;
36185;SDS011;22228;53.222;7.446;2023-12-20T10:04:22;3.83;;;0.97;;
36185;SDS011;22228;53.222;7.446;2023-12-20T10:07:47;4.80;;;0.70;;
36185;SDS011;22228;53.222;7.446;2023-12-20T10:11:09;5.80;;;0.87;;
36185;SDS011;22228;53.222;7.446;2023-12-20T10:14:30;7.57;;;1.00;;
36185;SDS011;22228;53.222;7.446;2023-12-20T10:17:52;4.33;;;1.17;;
36185;SDS011;22228;53.222;7.446;2023-12-20T10:21:13;3.27;;;0.83;;
36185;SDS011;22228;53.222;7.446;2023-12-20T10:24:34;7.60;;;1.20;;
36185;SDS011;22228;53.222;7.446;2023-12-20T10:28:09;9.80;;;1.77;;
36185;SDS011;22228;53.222;7.446;2023-12-20T10:31:31;5.73;;;1.20;;
36185;SDS011;22228;53.222;7.446;2023-12-20T10:34:54;10.37;;;1.13;;
36185;SDS011;22228;53.222;7.446;2023-12-20T10:38:15;6.07;;;1.40;;
36185;SDS011;22228;53.222;7.446;2023-12-20T10:41:37;6.00;;;1.27;;
36185;SDS011;22228;53.222;7.446;2023-12-20T10:45:01;9.17;;;1.53;;
36185;SDS011;22228;53.222;7.446;2023-12-20T10:48:22;8.17;;;1.73;;
36185;SDS011;22228;53.222;7.446;2023-12-20T10:51:47;9.53;;;1.80;;
36185;SDS011;22228;53.222;7.446;2023-12-20T10:55:10;14.40;;;1.60;;
36185;SDS011;22228;53.222;7.446;2023-12-20T10:58:31;11.63;;;1.93;;
36185;SDS011;22228;53.222;7.446;2023-12-20T11:01:56;12.40;;;2.00;;
36185;SDS011;22228;53.222;7.446;2023-12-20T11:05:24;11.57;;;2.23;;
36185;SDS011;22228;53.222;7.446;2023-12-20T11:08:51;12.90;;;1.80;;
36185;SDS011;22228;53.222;7.446;2023-12-20T11:12:31;10.20;;;1.40;;
36185;SDS011;22228;53.222;7.446;2023-12-20T11:15:59;10.90;;;1.50;;
36185;SDS011;22228;53.222;7.446;2023-12-20T11:19:22;13.87;;;2.07;;
36185;SDS011;22228;53.222;7.446;2023-12-20T11:22:51;10.17;;;1.87;;
36185;SDS011;22228;53.222;7.446;2023-12-20T11:26:15;7.87;;;1.50;;
36185;SDS011;22228;53.222;7.446;2023-12-20T11:29:35;9.30;;;2.13;;
36185;SDS011;22228;53.222;7.446;2023-12-20T11:32:56;13.20;;;2.30;;
36185;SDS011;22228;53.222;7.446;2023-12-20T11:36:19;11.20;;;1.90;;
36185;SDS011;22228;53.222;7.446;2023-12-20T11:39:39;6.47;;;1.50;;
36185;SDS011;22228;53.222;7.446;2023-12-20T11:43:00;9.37;;;1.83;;
36185;SDS011;22228;53.222;7.446;2023-12-20T11:46:20;12.47;;;1.80;;
36185;SDS011;22228;53.222;7.446;2023-12-20T11:49:47;11.30;;;2.17;;
36185;SDS011;22228;53.222;7.446;2023-12-20T11:53:10;9.53;;;1.57;;
36185;SDS011;22228;53.222;7.446;2023-12-20T11:56:33;16.83;;;2.77;;
36185;SDS011;22228;53.222;7.446;2023-12-20T11:59:53;14.30;;;2.07;;
36185;SDS011;22228;53.222;7.446;2023-12-20T12:03:15;13.07;;;2.70;;
36185;SDS011;22228;53.222;7.446;2023-12-20T12:06:35;12.87;;;2.13;;
36185;SDS011;22228;53.222;7.446;2023-12-20T12:09:58;16.57;;;2.30;;
36185;SDS011;22228;53.222;7.446;2023-12-20T12:13:18;11.90;;;2.17;;
36185;SDS011;22228;53.222;7.446;2023-12-20T12:16:39;20.17;;;3.17;;
36185;SDS011;22228;53.222;7.446;2023-12-20T12:20:04;16.10;;;2.97;;
36185;SDS011;22228;53.222;7.446;2023-12-20T12:23:26;12.03;;;2.60;;
36185;SDS011;22228;53.222;7.446;2023-12-20T12:26:50;14.80;;;3.00;;
36185;SDS011;22228;53.222;7.446;2023-12-20T12:30:11;12.07;;;2.63;;
36185;SDS011;22228;53.222;7.446;2023-12-20T12:33:32;15.03;;;3.03;;
36185;SDS011;22228;53.222;7.446;2023-12-20T12:36:55;19.03;;;2.63;;
36185;SDS011;22228;53.222;7.446;2023-12-20T12:40:16;12.63;;;2.47;;
36185;SDS011;22228;53.222;7.446;2023-12-20T12:43:41;11.90;;;2.63;;
36185;SDS011;22228;53.222;7.446;2023-12-20T12:47:01;12.57;;;2.90;;
36185;SDS011;22228;53.222;7.446;2023-12-20T12:50:22;11.73;;;2.37;;
36185;SDS011;22228;53.222;7.446;2023-12-20T12:53:43;11.43;;;2.03;;
36185;SDS011;22228;53.222;7.446;2023-12-20T12:57:03;12.67;;;2.70;;
36185;SDS011;22228;53.222;7.446;2023-12-20T13:00:26;12.50;;;2.03;;
36185;SDS011;22228;53.222;7.446;2023-12-20T13:03:49;12.53;;;2.17;;
36185;SDS011;22228;53.222;7.446;2023-12-20T13:07:09;15.70;;;2.47;;
36185;SDS011;22228;53.222;7.446;2023-12-20T13:10:32;15.33;;;2.47;;
36185;SDS011;22228;53.222;7.446;2023-12-20T13:13:52;14.67;;;2.97;;
36185;SDS011;22228;53.222;7.446;2023-12-20T13:17:14;14.30;;;2.40;;
36185;SDS011;22228;53.222;7.446;2023-12-20T13:20:35;11.60;;;2.00;;
36185;SDS011;22228;53.222;7.446;2023-12-20T13:23:58;10.73;;;1.97;;
36185;SDS011;22228;53.222;7.446;2023-12-20T13:27:18;11.60;;;2.07;;
36185;SDS011;22228;53.222;7.446;2023-12-20T13:30:39;11.20;;;2.60;;
36185;SDS011;22228;53.222;7.446;2023-12-20T13:34:01;10.47;;;1.77;;
36185;SDS011;22228;53.222;7.446;2023-12-20T13:37:22;14.87;;;2.80;;
36185;SDS011;22228;53.222;7.446;2023-12-20T13:40:45;9.60;;;2.00;;
36185;SDS011;22228;53.222;7.446;2023-12-20T13:44:06;8.93;;;1.90;;
36185;SDS011;22228;53.222;7.446;2023-12-20T13:47:27;9.03;;;2.27;;
36185;SDS011;22228;53.222;7.446;2023-12-20T13:50:50;10.77;;;1.90;;
36185;SDS011;22228;53.222;7.446;2023-12-20T13:54:10;12.67;;;2.17;;
36185;SDS011;22228;53.222;7.446;2023-12-20T13:57:31;8.77;;;1.63;;
36185;SDS011;22228;53.222;7.446;2023-12-20T14:00:52;14.50;;;2.50;;
36185;SDS011;22228;53.222;7.446;2023-12-20T14:04:13;11.30;;;2.10;;
36185;SDS011;22228;53.222;7.446;2023-12-20T14:07:35;9.40;;;2.07;;
36185;SDS011;22228;53.222;7.446;2023-12-20T14:10:55;7.20;;;1.50;;
36185;SDS011;22228;53.222;7.446;2023-12-20T14:14:16;10.23;;;1.60;;
36185;SDS011;22228;53.222;7.446;2023-12-20T14:17:36;9.43;;;2.13;;
36185;SDS011;22228;53.222;7.446;2023-12-20T14:20:57;10.27;;;1.87;;
36185;SDS011;22228;53.222;7.446;2023-12-20T14:24:19;8.47;;;1.57;;
36185;SDS011;22228;53.222;7.446;2023-12-20T14:27:40;7.57;;;1.57;;
36185;SDS011;22228;53.222;7.446;2023-12-20T14:31:02;10.63;;;2.07;;
36185;SDS011;22228;53.222;7.446;2023-12-20T14:34:23;12.73;;;2.70;;
36185;SDS011;22228;53.222;7.446;2023-12-20T14:37:44;12.13;;;2.53;;
36185;SDS011;22228;53.222;7.446;2023-12-20T14:41:06;10.00;;;1.93;;
36185;SDS011;22228;53.222;7.446;2023-12-20T14:44:27;17.43;;;3.17;;
36185;SDS011;22228;53.222;7.446;2023-12-20T14:47:47;15.73;;;2.47;;
36185;SDS011;22228;53.222;7.446;2023-12-20T14:51:08;11.30;;;2.10;;
36185;SDS011;22228;53.222;7.446;2023-12-20T14:54:29;7.97;;;1.77;;
36185;SDS011;22228;53.222;7.446;2023-12-20T14:57:51;7.23;;;1.80;;
36185;SDS011;22228;53.222;7.446;2023-12-20T15:01:12;9.60;;;2.10;;
36185;SDS011;22228;53.222;7.446;2023-12-20T15:04:32;10.40;;;1.77;;
36185;SDS011;22228;53.222;7.446;2023-12-20T15:07:53;11.37;;;2.10;;
36185;SDS011;22228;53.222;7.446;2023-12-20T15:11:13;6.87;;;1.30;;
36185;SDS011;22228;53.222;7.446;2023-12-20T15:14:35;4.40;;;1.07;;
36185;SDS011;22228;53.222;7.446;2023-12-20T15:17:56;12.40;;;1.70;;
36185;SDS011;22228;53.222;7.446;2023-12-20T15:21:17;7.30;;;1.57;;
36185;SDS011;22228;53.222;7.446;2023-12-20T15:24:38;6.90;;;1.73;;
36185;SDS011;22228;53.222;7.446;2023-12-20T15:28:01;5.40;;;1.30;;
36185;SDS011;22228;53.222;7.446;2023-12-20T15:31:23;5.90;;;1.20;;
36185;SDS011;22228;53.222;7.446;2023-12-20T15:34:45;5.83;;;1.10;;
36185;SDS011;22228;53.222;7.446;2023-12-20T15:38:05;7.60;;;2.13;;
36185;SDS011;22228;53.222;7.446;2023-12-20T15:41:26;6.67;;;1.50;;
36185;SDS011;22228;53.222;7.446;2023-12-20T15:44:49;9.67;;;1.90;;
36185;SDS011;22228;53.222;7.446;2023-12-20T15:48:11;7.00;;;2.00;;
36185;SDS011;22228;53.222;7.446;2023-12-20T15:51:36;7.17;;;1.23;;
36185;SDS011;22228;53.222;7.446;2023-12-20T15:54:57;5.17;;;1.17;;
36185;SDS011;22228;53.222;7.446;2023-12-20T15:58:19;19.87;;;6.27;;
36185;SDS011;22228;53.222;7.446;2023-12-20T16:01:40;3.80;;;1.30;;
36185;SDS011;22228;53.222;7.446;2023-12-20T16:05:02;7.33;;;1.83;;
36185;SDS011;22228;53.222;7.446;2023-12-20T16:08:23;8.33;;;2.17;;
36185;SDS011;22228;53.222;7.446;2023-12-20T16:11:43;5.73;;;1.13;;
36185;SDS011;22228;53.222;7.446;2023-12-20T16:15:04;5.33;;;2.07;;
36185;SDS011;22228;53.222;7.446;2023-12-20T16:18:28;6.37;;;1.37;;
36185;SDS011;22228;53.222;7.446;2023-12-20T16:21:50;6.93;;;1.40;;
36185;SDS011;22228;53.222;7.446;2023-12-20T16:25:11;12.53;;;1.40;;
36185;SDS011;22228;53.222;7.446;2023-12-20T16:28:31;9.00;;;1.27;;
36185;SDS011;22228;53.222;7.446;2023-12-20T16:31:52;6.03;;;1.77;;
36185;SDS011;22228;53.222;7.446;2023-12-20T16:35:12;4.93;;;1.73;;
36185;SDS011;22228;53.222;7.446;2023-12-20T16:38:34;6.73;;;1.57;;
36185;SDS011;22228;53.222;7.446;2023-12-20T16:41:55;5.10;;;1.27;;
36185;SDS011;22228;53.222;7.446;2023-12-20T16:45:16;7.10;;;1.27;;
36185;SDS011;22228;53.222;7.446;2023-12-20T16:48:36;6.00;;;1.37;;
36185;SDS011;22228;53.222;7.446;2023-12-20T16:51:57;10.37;;;1.90;;
36185;SDS011;22228;53.222;7.446;2023-12-20T16:55:19;8.03;;;1.50;;
36185;SDS011;22228;53.222;7.446;2023-12-20T16:58:41;5.83;;;1.73;;
36185;SDS011;22228;53.222;7.446;2023-12-20T17:02:02;8.10;;;1.83;;
36185;SDS011;22228;53.222;7.446;2023-12-20T17:05:38;7.93;;;1.53;;
36185;SDS011;22228;53.222;7.446;2023-12-20T17:09:00;9.87;;;2.27;;
36185;SDS011;22228;53.222;7.446;2023-12-20T17:12:24;7.37;;;1.63;;
36185;SDS011;22228;53.222;7.446;2023-12-20T17:15:45;6.53;;;2.33;;
36185;SDS011;22228;53.222;7.446;2023-12-20T17:19:07;7.80;;;2.47;;
36185;SDS011;22228;53.222;7.446;2023-12-20T17:22:31;9.00;;;2.23;;
36185;SDS011;22228;53.222;7.446;2023-12-20T17:25:52;12.57;;;2.30;;
36185;SDS011;22228;53.222;7.446;2023-12-20T17:29:15;10.47;;;3.00;;
36185;SDS011;22228;53.222;7.446;2023-12-20T17:32:37;11.83;;;2.73;;
36185;SDS011;22228;53.222;7.446;2023-12-20T17:36:07;10.97;;;2.33;;
36185;SDS011;22228;53.222;7.446;2023-12-20T17:39:31;9.30;;;2.30;;
36185;SDS011;22228;53.222;7.446;2023-12-20T17:42:52;12.70;;;2.50;;
36185;SDS011;22228;53.222;7.446;2023-12-20T17:46:16;9.03;;;2.70;;
36185;SDS011;22228;53.222;7.446;2023-12-20T17:49:38;12.70;;;2.70;;
36185;SDS011;22228;53.222;7.446;2023-12-20T17:53:01;10.03;;;2.83;;
36185;SDS011;22228;53.222;7.446;2023-12-20T17:56:26;10.57;;;2.70;;
36185;SDS011;22228;53.222;7.446;2023-12-20T17:59:49;11.83;;;2.93;;
36185;SDS011;22228;53.222;7.446;2023-12-20T18:03:11;11.37;;;2.80;;
36185;SDS011;22228;53.222;7.446;2023-12-20T18:06:32;11.27;;;3.07;;
36185;SDS011;22228;53.222;7.446;2023-12-20T18:09:52;18.67;;;3.47;;
36185;SDS011;22228;53.222;7.446;2023-12-20T18:13:13;14.13;;;3.33;;
36185;SDS011;22228;53.222;7.446;2023-12-20T18:16:34;14.57;;;3.63;;
36185;SDS011;22228;53.222;7.446;2023-12-20T18:19:56;10.53;;;3.60;;
36185;SDS011;22228;53.222;7.446;2023-12-20T18:23:18;14.83;;;3.90;;
36185;SDS011;22228;53.222;7.446;2023-12-20T18:26:39;15.43;;;4.10;;
36185;SDS011;22228;53.222;7.446;2023-12-20T18:30:05;12.93;;;4.87;;
36185;SDS011;22228;53.222;7.446;2023-12-20T18:33:26;16.67;;;5.23;;
36185;SDS011;22228;53.222;7.446;2023-12-20T18:36:53;17.77;;;5.50;;
36185;SDS011;22228;53.222;7.446;2023-12-20T18:40:14;15.27;;;6.13;;
36185;SDS011;22228;53.222;7.446;2023-12-20T18:43:35;15.67;;;5.33;;
36185;SDS011;22228;53.222;7.446;2023-12-20T18:46:56;18.07;;;5.93;;
36185;SDS011;22228;53.222;7.446;2023-12-20T18:50:17;15.73;;;5.83;;
36185;SDS011;22228;53.222;7.446;2023-12-20T18:53:39;15.10;;;6.03;;
36185;SDS011;22228;53.222;7.446;2023-12-20T18:57:00;16.73;;;6.10;;
36185;SDS011;22228;53.222;7.446;2023-12-20T19:00:21;12.90;;;4.67;;
36185;SDS011;22228;53.222;7.446;2023-12-20T19:03:42;10.67;;;4.47;;
36185;SDS011;22228;53.222;7.446;2023-12-20T19:07:06;7.83;;;3.97;;
36185;SDS011;22228;53.222;7.446;2023-12-20T19:10:28;7.07;;;3.30;;
36185;SDS011;22228;53.222;7.446;2023-12-20T19:13:48;7.37;;;3.43;;
36185;SDS011;22228;53.222;7.446;2023-12-20T19:17:10;7.23;;;3.07;;
36185;SDS011;22228;53.222;7.446;2023-12-20T19:20:31;5.13;;;3.30;;
36185;SDS011;22228;53.222;7.446;2023-12-20T19:23:52;6.47;;;2.67;;
36185;SDS011;22228;53.222;7.446;2023-12-20T19:27:14;6.37;;;3.17;;
36185;SDS011;22228;53.222;7.446;2023-12-20T19:30:35;2.50;;;2.30;;
36185;SDS011;22228;53.222;7.446;2023-12-20T19:33:57;3.67;;;2.30;;
36185;SDS011;22228;53.222;7.446;2023-12-20T19:37:18;3.77;;;3.43;;
36185;SDS011;22228;53.222;7.446;2023-12-20T19:40:38;2.70;;;2.43;;
36185;SDS011;22228;53.222;7.446;2023-12-20T19:44:00;3.00;;;2.20;;
36185;SDS011;22228;53.222;7.446;2023-12-20T19:47:21;2.43;;;2.23;;
36185;SDS011;22228;53.222;7.446;2023-12-20T19:50:41;2.07;;;1.97;;
36185;SDS011;22228;53.222;7.446;2023-12-20T19:54:02;2.00;;;1.80;;
36185;SDS011;22228;53.222;7.446;2023-12-20T19:57:22;1.90;;;1.67;;
36185;SDS011;22228;53.222;7.446;2023-12-20T20:00:44;1.83;;;1.73;;
36185;SDS011;22228;53.222;7.446;2023-12-20T20:04:05;2.20;;;2.03;;
36185;SDS011;22228;53.222;7.446;2023-12-20T20:07:26;1.80;;;1.70;;
36185;SDS011;22228;53.222;7.446;2023-12-20T20:10:46;4.30;;;3.90;;
36185;SDS011;22228;53.222;7.446;2023-12-20T20:14:08;2.23;;;2.13;;
36185;SDS011;22228;53.222;7.446;2023-12-20T20:17:31;2.00;;;1.90;;
36185;SDS011;22228;53.222;7.446;2023-12-20T20:20:52;2.40;;;2.20;;
36185;SDS011;22228;53.222;7.446;2023-12-20T20:24:13;2.13;;;1.93;;
36185;SDS011;22228;53.222;7.446;2023-12-20T20:27:34;2.00;;;1.90;;
36185;SDS011;22228;53.222;7.446;2023-12-20T20:30:55;2.20;;;2.00;;
36185;SDS011;22228;53.222;7.446;2023-12-20T20:34:20;1.43;;;1.33;;
36185;SDS011;22228;53.222;7.446;2023-12-20T20:37:46;1.40;;;1.30;;
36185;SDS011;22228;53.222;7.446;2023-12-20T20:41:07;1.70;;;1.60;;
36185;SDS011;22228;53.222;7.446;2023-12-20T20:44:27;2.30;;;1.33;;
36185;SDS011;22228;53.222;7.446;2023-12-20T20:47:48;1.20;;;1.20;;
36185;SDS011;22228;53.222;7.446;2023-12-20T20:51:10;2.60;;;1.07;;
36185;SDS011;22228;53.222;7.446;2023-12-20T20:54:31;1.40;;;1.30;;
36185;SDS011;22228;53.222;7.446;2023-12-20T20:57:52;1.00;;;0.90;;
36185;SDS011;22228;53.222;7.446;2023-12-20T21:01:12;1.70;;;1.17;;
36185;SDS011;22228;53.222;7.446;2023-12-20T21:04:33;1.67;;;1.00;;
36185;SDS011;22228;53.222;7.446;2023-12-20T21:07:55;1.90;;;1.73;;
36185;SDS011;22228;53.222;7.446;2023-12-20T21:11:16;2.00;;;1.40;;
36185;SDS011;22228;53.222;7.446;2023-12-20T21:14:40;3.07;;;2.00;;
36185;SDS011;22228;53.222;7.446;2023-12-20T21:18:00;2.90;;;2.47;;
36185;SDS011;22228;53.222;7.446;2023-12-20T21:21:21;5.00;;;2.10;;
36185;SDS011;22228;53.222;7.446;2023-12-20T21:24:42;7.90;;;2.57;;
36185;SDS011;22228;53.222;7.446;2023-12-20T21:28:04;7.33;;;3.67;;
36185;SDS011;22228;53.222;7.446;2023-12-20T21:31:25;9.37;;;4.17;;
36185;SDS011;22228;53.222;7.446;2023-12-20T21:34:45;15.03;;;5.07;;
36185;SDS011;22228;53.222;7.446;2023-12-20T21:38:06;10.93;;;4.57;;
36185;SDS011;22228;53.222;7.446;2023-12-20T21:41:28;13.27;;;5.30;;
36185;SDS011;22228;53.222;7.446;2023-12-20T21:44:48;13.10;;;4.73;;
36185;SDS011;22228;53.222;7.446;2023-12-20T21:48:10;12.37;;;4.73;;
36185;SDS011;22228;53.222;7.446;2023-12-20T21:51:31;15.20;;;5.87;;
36185;SDS011;22228;53.222;7.446;2023-12-20T21:54:51;18.70;;;5.37;;
36185;SDS011;22228;53.222;7.446;2023-12-20T21:58:13;12.97;;;4.93;;
36185;SDS011;22228;53.222;7.446;2023-12-20T22:01:35;21.40;;;6.20;;
36185;SDS011;22228;53.222;7.446;2023-12-20T22:04:55;22.20;;;5.73;;
36185;SDS011;22228;53.222;7.446;2023-12-20T22:08:17;21.97;;;5.90;;
36185;SDS011;22228;53.222;7.446;2023-12-20T22:11:38;20.77;;;5.73;;
36185;SDS011;22228;53.222;7.446;2023-12-20T22:15:01;18.37;;;5.00;;
36185;SDS011;22228;53.222;7.446;2023-12-20T22:18:21;13.37;;;4.67;;
36185;SDS011;22228;53.222;7.446;2023-12-20T22:21:42;16.13;;;4.97;;
36185;SDS011;22228;53.222;7.446;2023-12-20T22:25:03;21.87;;;5.40;;
36185;SDS011;22228;53.222;7.446;2023-12-20T22:28:24;23.10;;;4.47;;
36185;SDS011;22228;53.222;7.446;2023-12-20T22:31:46;17.80;;;5.47;;
36185;SDS011;22228;53.222;7.446;2023-12-20T22:35:07;18.57;;;6.00;;
36185;SDS011;22228;53.222;7.446;2023-12-20T22:38:28;25.07;;;5.17;;
36185;SDS011;22228;53.222;7.446;2023-12-20T22:41:52;26.77;;;6.37;;
36185;SDS011;22228;53.222;7.446;2023-12-20T22:45:12;21.53;;;5.47;;
36185;SDS011;22228;53.222;7.446;2023-12-20T22:48:35;16.60;;;5.03;;